BAW94HG EDDH-EGLL
Flight info
| Callsign | BAW94HG |
|---|---|
| Flight time | 1h 18m |
| Altitude | 38000 |
| Route | WSN5C/05 WSN N125 ITMIZ DCT PARYD DCT ABNED L980 LOGAN LOGAN2H |
| Aircraft | A319/M-SDE3FGIJ1KRWXY/LB1 |
Departure
| Time | 2026-04-20 18:41 |
|---|---|
| Airport | Hamburg Helmut Schmidt Airport (EDDH) |
Arrival
| Time | 2026-04-20 20:00 |
|---|---|
| Airport | London Heathrow Airport (EGLL) |
| Time | Latitude | Longitude | Altitude | Speed | Heading |
|---|---|---|---|---|---|
| 2026-04-20 17:56 | 53.62939 | 10.00296 | 49 ft | 0 kts | 122° |
| 2026-04-20 18:03 | 53.63292 | 10.00360 | 48 ft | 0 kts | 87° |
| 2026-04-20 18:28 | 53.63292 | 10.00339 | 48 ft | 4 kts | 87° |
| 2026-04-20 18:28 | 53.63290 | 10.00294 | 48 ft | 4 kts | 87° |
| 2026-04-20 18:28 | 53.63289 | 10.00253 | 48 ft | 3 kts | 87° |
| 2026-04-20 18:29 | 53.63288 | 10.00233 | 48 ft | 3 kts | 87° |
| 2026-04-20 18:29 | 53.63289 | 10.00203 | 48 ft | 3 kts | 103° |
| 2026-04-20 18:29 | 53.63296 | 10.00175 | 46 ft | 2 kts | 155° |
| 2026-04-20 18:29 | 53.63305 | 10.00169 | 42 ft | 0 kts | 179° |
| 2026-04-20 18:32 | 53.63298 | 10.00169 | 45 ft | 2 kts | 178° |
| 2026-04-20 18:32 | 53.63274 | 10.00172 | 46 ft | 5 kts | 176° |
| 2026-04-20 18:33 | 53.63232 | 10.00142 | 47 ft | 8 kts | 226° |
| 2026-04-20 18:33 | 53.63190 | 10.00054 | 48 ft | 11 kts | 231° |
| 2026-04-20 18:33 | 53.63137 | 9.99949 | 48 ft | 8 kts | 229° |
| 2026-04-20 18:33 | 53.63095 | 9.99888 | 48 ft | 9 kts | 198° |
| 2026-04-20 18:34 | 53.63033 | 9.99926 | 48 ft | 11 kts | 151° |
| 2026-04-20 18:34 | 53.62961 | 9.99988 | 48 ft | 12 kts | 154° |
| 2026-04-20 18:34 | 53.62890 | 10.00041 | 48 ft | 9 kts | 167° |
| 2026-04-20 18:34 | 53.62833 | 9.99990 | 46 ft | 11 kts | 212° |
| 2026-04-20 18:35 | 53.62824 | 9.99980 | 48 ft | 0 kts | 211° |
| 2026-04-20 18:36 | 53.62817 | 9.99974 | 48 ft | 3 kts | 211° |
| 2026-04-20 18:36 | 53.62781 | 9.99938 | 47 ft | 9 kts | 210° |
| 2026-04-20 18:36 | 53.62713 | 9.99875 | 44 ft | 13 kts | 208° |
| 2026-04-20 18:36 | 53.62641 | 9.99773 | 46 ft | 12 kts | 249° |
| 2026-04-20 18:37 | 53.62623 | 9.99632 | 47 ft | 13 kts | 260° |
| 2026-04-20 18:37 | 53.62606 | 9.99467 | 43 ft | 15 kts | 259° |
| 2026-04-20 18:37 | 53.62583 | 9.99277 | 47 ft | 18 kts | 259° |
| 2026-04-20 18:37 | 53.62559 | 9.99061 | 47 ft | 20 kts | 259° |
| 2026-04-20 18:38 | 53.62532 | 9.98821 | 46 ft | 22 kts | 259° |
| 2026-04-20 18:38 | 53.62502 | 9.98561 | 47 ft | 23 kts | 259° |
| 2026-04-20 18:38 | 53.62473 | 9.98304 | 47 ft | 19 kts | 259° |
| 2026-04-20 18:38 | 53.62448 | 9.98082 | 45 ft | 19 kts | 259° |
| 2026-04-20 18:39 | 53.62430 | 9.97928 | 46 ft | 9 kts | 259° |
| 2026-04-20 18:39 | 53.62428 | 9.97863 | 45 ft | 3 kts | 277° |
| 2026-04-20 18:39 | 53.62431 | 9.97823 | 43 ft | 0 kts | 277° |
| 2026-04-20 18:40 | 53.62432 | 9.97820 | 43 ft | 1 kts | 292° |
| 2026-04-20 18:40 | 53.62464 | 9.97783 | 41 ft | 11 kts | 324° |
| 2026-04-20 18:40 | 53.62529 | 9.97795 | 40 ft | 11 kts | 51° |
| 2026-04-20 18:40 | 53.62587 | 9.97911 | 41 ft | 17 kts | 50° |
| 2026-04-20 18:41 | 53.62756 | 9.98252 | 43 ft | 70 kts | 50° |
| 2026-04-20 18:41 | 53.63211 | 9.99174 | 51 ft | 134 kts | 50° |
| 2026-04-20 18:41 | 53.63821 | 10.00425 | 661 ft | 135 kts | 50° |
| 2026-04-20 18:41 | 53.64430 | 10.01594 | 1476 ft | 129 kts | 50° |
| 2026-04-20 18:42 | 53.65011 | 10.02756 | 2050 ft | 136 kts | 55° |
| 2026-04-20 18:42 | 53.65652 | 10.04088 | 2403 ft | 157 kts | 55° |
| 2026-04-20 18:42 | 53.66391 | 10.05626 | 2729 ft | 181 kts | 54° |
| 2026-04-20 18:42 | 53.67233 | 10.07366 | 3293 ft | 196 kts | 53° |
| 2026-04-20 18:43 | 53.68106 | 10.09151 | 4173 ft | 199 kts | 53° |
| 2026-04-20 18:43 | 53.69092 | 10.10819 | 5054 ft | 207 kts | 33° |
| 2026-04-20 18:43 | 53.70532 | 10.11233 | 5864 ft | 224 kts | 353° |
| 2026-04-20 18:43 | 53.71981 | 10.09884 | 6344 ft | 259 kts | 317° |
| 2026-04-20 18:44 | 53.73084 | 10.07284 | 6908 ft | 283 kts | 301° |
| 2026-04-20 18:44 | 53.73958 | 10.04245 | 7727 ft | 291 kts | 296° |
| 2026-04-20 18:44 | 53.74561 | 10.00947 | 8608 ft | 299 kts | 279° |
| 2026-04-20 18:44 | 53.74618 | 9.97404 | 9510 ft | 305 kts | 266° |
| 2026-04-20 18:45 | 53.74260 | 9.93844 | 9816 ft | 308 kts | 252° |
| 2026-04-20 18:45 | 53.73482 | 9.90469 | 10282 ft | 310 kts | 245° |
| 2026-04-20 18:45 | 53.72609 | 9.87003 | 10623 ft | 333 kts | 246° |
| 2026-04-20 18:45 | 53.71682 | 9.83289 | 10945 ft | 352 kts | 246° |
| 2026-04-20 18:46 | 53.71042 | 9.80688 | 11362 ft | 357 kts | 247° |
| 2026-04-20 18:46 | 53.70092 | 9.76779 | 12092 ft | 362 kts | 247° |
| 2026-04-20 18:46 | 53.69140 | 9.72824 | 12850 ft | 366 kts | 248° |
| 2026-04-20 18:46 | 53.68178 | 9.68826 | 13598 ft | 370 kts | 248° |
| 2026-04-20 18:47 | 53.67216 | 9.64843 | 14298 ft | 373 kts | 248° |
| 2026-04-20 18:47 | 53.66228 | 9.60773 | 14959 ft | 377 kts | 248° |
| 2026-04-20 18:47 | 53.65216 | 9.56614 | 15627 ft | 380 kts | 248° |
| 2026-04-20 18:47 | 53.64207 | 9.52476 | 16294 ft | 383 kts | 248° |
| 2026-04-20 18:48 | 53.63199 | 9.48363 | 16962 ft | 386 kts | 248° |
| 2026-04-20 18:48 | 53.62169 | 9.44161 | 17605 ft | 390 kts | 248° |
| 2026-04-20 18:48 | 53.61130 | 9.39934 | 18318 ft | 392 kts | 248° |
| 2026-04-20 18:48 | 53.60078 | 9.35676 | 18938 ft | 395 kts | 248° |
| 2026-04-20 18:49 | 53.59016 | 9.31392 | 19502 ft | 398 kts | 248° |
| 2026-04-20 18:49 | 53.57941 | 9.27070 | 20068 ft | 402 kts | 248° |
| 2026-04-20 18:49 | 53.56859 | 9.22713 | 20656 ft | 405 kts | 248° |
| 2026-04-20 18:49 | 53.55770 | 9.18323 | 21226 ft | 408 kts | 248° |
| 2026-04-20 18:50 | 53.54672 | 9.13903 | 21790 ft | 411 kts | 248° |
| 2026-04-20 18:50 | 53.53564 | 9.09452 | 22340 ft | 415 kts | 248° |
| 2026-04-20 18:50 | 53.52445 | 9.04965 | 22871 ft | 418 kts | 248° |
| 2026-04-20 18:50 | 53.51315 | 9.00446 | 23396 ft | 421 kts | 248° |
| 2026-04-20 18:51 | 53.50174 | 8.95895 | 23890 ft | 424 kts | 247° |
| 2026-04-20 18:51 | 53.49020 | 8.91319 | 24315 ft | 427 kts | 247° |
| 2026-04-20 18:51 | 53.47852 | 8.86713 | 24743 ft | 430 kts | 247° |
| 2026-04-20 18:51 | 53.46679 | 8.82084 | 25169 ft | 432 kts | 247° |
| 2026-04-20 18:52 | 53.45500 | 8.77430 | 25594 ft | 434 kts | 247° |
| 2026-04-20 18:52 | 53.44317 | 8.72758 | 26047 ft | 436 kts | 247° |
| 2026-04-20 18:52 | 53.43127 | 8.68061 | 26470 ft | 439 kts | 247° |
| 2026-04-20 18:52 | 53.41931 | 8.63343 | 26919 ft | 440 kts | 248° |
| 2026-04-20 18:53 | 53.40730 | 8.58621 | 27376 ft | 442 kts | 248° |
| 2026-04-20 18:53 | 53.39519 | 8.53873 | 27794 ft | 444 kts | 247° |
| 2026-04-20 18:53 | 53.38296 | 8.49100 | 28196 ft | 447 kts | 247° |
| 2026-04-20 18:53 | 53.37065 | 8.44307 | 28593 ft | 450 kts | 247° |
| 2026-04-20 18:54 | 53.35822 | 8.39487 | 28981 ft | 452 kts | 247° |
| 2026-04-20 18:54 | 53.34564 | 8.34633 | 29356 ft | 455 kts | 247° |
| 2026-04-20 18:54 | 53.33300 | 8.29761 | 29712 ft | 458 kts | 247° |
| 2026-04-20 18:54 | 53.32033 | 8.24869 | 30072 ft | 460 kts | 247° |
| 2026-04-20 18:55 | 53.30759 | 8.19942 | 30414 ft | 462 kts | 246° |
| 2026-04-20 18:55 | 53.29480 | 8.15000 | 30729 ft | 464 kts | 246° |
| 2026-04-20 18:55 | 53.28192 | 8.10049 | 31026 ft | 466 kts | 246° |
| 2026-04-20 18:55 | 53.26889 | 8.05075 | 31293 ft | 468 kts | 246° |
| 2026-04-20 18:56 | 53.25582 | 8.00095 | 31678 ft | 467 kts | 246° |
| 2026-04-20 18:56 | 53.24280 | 7.95135 | 32066 ft | 467 kts | 246° |
| 2026-04-20 18:56 | 53.22974 | 7.90173 | 32434 ft | 467 kts | 246° |
| 2026-04-20 18:56 | 53.21665 | 7.85223 | 32821 ft | 466 kts | 246° |
| 2026-04-20 18:57 | 53.20354 | 7.80278 | 33224 ft | 465 kts | 246° |
| 2026-04-20 18:57 | 53.19044 | 7.75341 | 33585 ft | 466 kts | 246° |
| 2026-04-20 18:57 | 53.17735 | 7.70410 | 33969 ft | 465 kts | 246° |
| 2026-04-20 18:57 | 53.16430 | 7.65483 | 34353 ft | 464 kts | 246° |
| 2026-04-20 18:58 | 53.15124 | 7.60558 | 34632 ft | 465 kts | 246° |
| 2026-04-20 18:58 | 53.13815 | 7.55639 | 34952 ft | 464 kts | 246° |
| 2026-04-20 18:58 | 53.12505 | 7.50737 | 35279 ft | 464 kts | 246° |
| 2026-04-20 18:58 | 53.11171 | 7.45767 | 35537 ft | 464 kts | 246° |
| 2026-04-20 18:59 | 53.09853 | 7.40865 | 35849 ft | 463 kts | 246° |
| 2026-04-20 18:59 | 53.08537 | 7.35982 | 36163 ft | 462 kts | 246° |
| 2026-04-20 18:59 | 53.07222 | 7.31105 | 36450 ft | 462 kts | 246° |
| 2026-04-20 18:59 | 53.05885 | 7.26164 | 36746 ft | 461 kts | 246° |
| 2026-04-20 19:00 | 53.04568 | 7.21314 | 37048 ft | 460 kts | 247° |
| 2026-04-20 19:00 | 53.03250 | 7.16473 | 37299 ft | 460 kts | 247° |
| 2026-04-20 19:00 | 53.01932 | 7.11643 | 37645 ft | 457 kts | 247° |
| 2026-04-20 19:00 | 53.00619 | 7.06841 | 37973 ft | 455 kts | 247° |
| 2026-04-20 19:01 | 52.99327 | 7.02124 | 38197 ft | 455 kts | 247° |
| 2026-04-20 19:01 | 52.98001 | 6.97284 | 38247 ft | 454 kts | 247° |
| 2026-04-20 19:01 | 52.95384 | 6.87765 | 38246 ft | 453 kts | 247° |
| 2026-04-20 19:02 | 52.92765 | 6.78253 | 38249 ft | 453 kts | 247° |
| 2026-04-20 19:02 | 52.90136 | 6.68757 | 38244 ft | 453 kts | 247° |
| 2026-04-20 19:03 | 52.87502 | 6.59275 | 38252 ft | 453 kts | 246° |
| 2026-04-20 19:03 | 52.84851 | 6.49807 | 38241 ft | 454 kts | 246° |
| 2026-04-20 19:04 | 52.82189 | 6.40316 | 38252 ft | 458 kts | 246° |
| 2026-04-20 19:04 | 52.79479 | 6.30705 | 38250 ft | 463 kts | 246° |
| 2026-04-20 19:05 | 52.76753 | 6.21056 | 38247 ft | 464 kts | 246° |
| 2026-04-20 19:05 | 52.74015 | 6.11409 | 38247 ft | 464 kts | 246° |
| 2026-04-20 19:06 | 52.71268 | 6.01777 | 38242 ft | 464 kts | 246° |
| 2026-04-20 19:06 | 52.68515 | 5.92156 | 38248 ft | 464 kts | 246° |
| 2026-04-20 19:07 | 52.65755 | 5.82546 | 38256 ft | 464 kts | 246° |
| 2026-04-20 19:07 | 52.62984 | 5.72941 | 38262 ft | 464 kts | 246° |
| 2026-04-20 19:08 | 52.58812 | 5.58568 | 38258 ft | 464 kts | 246° |
| 2026-04-20 19:09 | 52.56026 | 5.48999 | 38259 ft | 464 kts | 246° |
| 2026-04-20 19:09 | 52.53235 | 5.39459 | 38265 ft | 463 kts | 246° |
| 2026-04-20 19:10 | 52.50437 | 5.29942 | 38263 ft | 462 kts | 246° |
| 2026-04-20 19:10 | 52.47618 | 5.20387 | 38262 ft | 462 kts | 246° |
| 2026-04-20 19:11 | 52.44811 | 5.10906 | 38261 ft | 462 kts | 246° |
| 2026-04-20 19:11 | 52.41992 | 5.01444 | 38259 ft | 462 kts | 246° |
| 2026-04-20 19:12 | 52.39166 | 4.92007 | 38256 ft | 461 kts | 246° |
| 2026-04-20 19:12 | 52.36340 | 4.82590 | 38266 ft | 460 kts | 246° |
| 2026-04-20 19:13 | 52.33519 | 4.73208 | 38262 ft | 459 kts | 246° |
| 2026-04-20 19:13 | 52.30694 | 4.63842 | 38256 ft | 459 kts | 246° |
| 2026-04-20 19:14 | 52.27861 | 4.54493 | 38255 ft | 459 kts | 245° |
| 2026-04-20 19:14 | 52.25018 | 4.45170 | 38257 ft | 459 kts | 245° |
| 2026-04-20 19:15 | 52.22172 | 4.35850 | 38262 ft | 459 kts | 245° |
| 2026-04-20 19:15 | 52.19320 | 4.26549 | 38251 ft | 459 kts | 245° |
| 2026-04-20 19:16 | 52.16455 | 4.17260 | 38253 ft | 459 kts | 245° |
| 2026-04-20 19:16 | 52.13577 | 4.07989 | 38275 ft | 459 kts | 245° |
| 2026-04-20 19:17 | 52.10705 | 3.98725 | 38264 ft | 459 kts | 245° |
| 2026-04-20 19:17 | 52.07806 | 3.89402 | 38265 ft | 458 kts | 245° |
| 2026-04-20 19:18 | 52.04923 | 3.80167 | 38274 ft | 458 kts | 245° |
| 2026-04-20 19:18 | 52.02030 | 3.70958 | 38275 ft | 458 kts | 245° |
| 2026-04-20 19:19 | 51.99130 | 3.61759 | 38275 ft | 458 kts | 245° |
| 2026-04-20 19:19 | 51.96220 | 3.52579 | 38270 ft | 457 kts | 245° |
| 2026-04-20 19:20 | 51.93803 | 3.44962 | 38273 ft | 457 kts | 245° |
| 2026-04-20 19:20 | 51.90891 | 3.35819 | 38271 ft | 457 kts | 245° |
| 2026-04-20 19:21 | 51.87971 | 3.26695 | 38281 ft | 456 kts | 245° |
| 2026-04-20 19:21 | 51.85298 | 3.17432 | 38272 ft | 452 kts | 255° |
| 2026-04-20 19:22 | 51.84295 | 3.07490 | 38275 ft | 448 kts | 266° |
| 2026-04-20 19:22 | 51.83652 | 2.97460 | 38274 ft | 448 kts | 265° |
| 2026-04-20 19:23 | 51.82983 | 2.87443 | 38276 ft | 448 kts | 265° |
| 2026-04-20 19:23 | 51.82312 | 2.77418 | 38278 ft | 448 kts | 265° |
| 2026-04-20 19:24 | 51.81637 | 2.67401 | 38281 ft | 448 kts | 265° |
| 2026-04-20 19:24 | 51.80952 | 2.57504 | 37911 ft | 438 kts | 265° |
| 2026-04-20 19:24 | 51.80612 | 2.52615 | 37647 ft | 436 kts | 265° |
| 2026-04-20 19:25 | 51.80272 | 2.47746 | 37387 ft | 435 kts | 265° |
| 2026-04-20 19:25 | 51.79931 | 2.42897 | 36803 ft | 436 kts | 265° |
| 2026-04-20 19:25 | 51.79589 | 2.38023 | 36101 ft | 438 kts | 265° |
| 2026-04-20 19:25 | 51.79243 | 2.33121 | 35335 ft | 441 kts | 265° |
| 2026-04-20 19:26 | 51.78893 | 2.28256 | 34559 ft | 444 kts | 265° |
| 2026-04-20 19:26 | 51.78528 | 2.23245 | 33824 ft | 440 kts | 266° |
| 2026-04-20 19:26 | 51.78186 | 2.18376 | 32700 ft | 435 kts | 267° |
| 2026-04-20 19:26 | 51.77887 | 2.13530 | 31703 ft | 429 kts | 268° |
| 2026-04-20 19:27 | 51.77619 | 2.08818 | 31249 ft | 417 kts | 268° |
| 2026-04-20 19:27 | 51.77361 | 2.04170 | 30660 ft | 413 kts | 268° |
| 2026-04-20 19:27 | 51.77104 | 1.99572 | 30039 ft | 410 kts | 268° |
| 2026-04-20 19:27 | 51.76843 | 1.95081 | 29456 ft | 404 kts | 268° |
| 2026-04-20 19:28 | 51.76572 | 1.90540 | 28887 ft | 398 kts | 268° |
| 2026-04-20 19:28 | 51.76305 | 1.86138 | 28339 ft | 392 kts | 268° |
| 2026-04-20 19:28 | 51.76037 | 1.81791 | 27795 ft | 386 kts | 268° |
| 2026-04-20 19:28 | 51.75775 | 1.77507 | 27257 ft | 381 kts | 268° |
| 2026-04-20 19:29 | 51.75517 | 1.73274 | 26740 ft | 377 kts | 268° |
| 2026-04-20 19:29 | 51.75258 | 1.69092 | 26224 ft | 372 kts | 268° |
| 2026-04-20 19:29 | 51.74997 | 1.64955 | 25729 ft | 368 kts | 268° |
| 2026-04-20 19:29 | 51.74739 | 1.60866 | 25238 ft | 365 kts | 268° |
| 2026-04-20 19:30 | 51.74483 | 1.56793 | 24686 ft | 365 kts | 268° |
| 2026-04-20 19:30 | 51.74226 | 1.52724 | 24149 ft | 364 kts | 268° |
| 2026-04-20 19:30 | 51.73965 | 1.48659 | 23550 ft | 364 kts | 267° |
| 2026-04-20 19:30 | 51.73703 | 1.44602 | 22975 ft | 362 kts | 268° |
| 2026-04-20 19:31 | 51.73440 | 1.40580 | 22448 ft | 359 kts | 268° |
| 2026-04-20 19:31 | 51.73176 | 1.36572 | 21905 ft | 357 kts | 267° |
| 2026-04-20 19:31 | 51.72916 | 1.32621 | 21379 ft | 354 kts | 267° |
| 2026-04-20 19:31 | 51.72655 | 1.28678 | 20850 ft | 352 kts | 267° |
| 2026-04-20 19:32 | 51.72395 | 1.24760 | 20322 ft | 351 kts | 266° |
| 2026-04-20 19:32 | 51.72136 | 1.20855 | 19795 ft | 350 kts | 266° |
| 2026-04-20 19:32 | 51.71876 | 1.16959 | 19275 ft | 349 kts | 266° |
| 2026-04-20 19:32 | 51.71617 | 1.13075 | 18754 ft | 348 kts | 266° |
| 2026-04-20 19:33 | 51.71358 | 1.09204 | 18188 ft | 347 kts | 266° |
| 2026-04-20 19:33 | 51.71094 | 1.05338 | 17658 ft | 346 kts | 266° |
| 2026-04-20 19:33 | 51.70828 | 1.01492 | 17141 ft | 344 kts | 266° |
| 2026-04-20 19:33 | 51.70562 | 0.97676 | 16628 ft | 341 kts | 266° |
| 2026-04-20 19:34 | 51.70301 | 0.93891 | 16104 ft | 340 kts | 265° |
| 2026-04-20 19:34 | 51.70040 | 0.90114 | 15591 ft | 338 kts | 265° |
| 2026-04-20 19:34 | 51.69777 | 0.86348 | 15062 ft | 337 kts | 265° |
| 2026-04-20 19:34 | 51.69514 | 0.82605 | 14536 ft | 336 kts | 265° |
| 2026-04-20 19:35 | 51.69252 | 0.78879 | 14007 ft | 334 kts | 265° |
| 2026-04-20 19:35 | 51.68989 | 0.75165 | 13446 ft | 332 kts | 265° |
| 2026-04-20 19:35 | 51.68730 | 0.71483 | 12927 ft | 330 kts | 265° |
| 2026-04-20 19:35 | 51.68471 | 0.67818 | 12410 ft | 328 kts | 265° |
| 2026-04-20 19:36 | 51.68211 | 0.64168 | 11896 ft | 327 kts | 265° |
| 2026-04-20 19:36 | 51.67952 | 0.60539 | 11426 ft | 325 kts | 265° |
| 2026-04-20 19:36 | 51.67695 | 0.57000 | 11295 ft | 311 kts | 265° |
| 2026-04-20 19:36 | 51.67448 | 0.53605 | 11166 ft | 300 kts | 265° |
| 2026-04-20 19:37 | 51.67208 | 0.50320 | 10969 ft | 292 kts | 265° |
| 2026-04-20 19:37 | 51.66974 | 0.47086 | 10639 ft | 290 kts | 265° |
| 2026-04-20 19:37 | 51.66741 | 0.43878 | 10315 ft | 287 kts | 265° |
| 2026-04-20 19:37 | 51.66508 | 0.40689 | 9954 ft | 286 kts | 266° |
| 2026-04-20 19:38 | 51.66276 | 0.37514 | 9579 ft | 285 kts | 265° |
| 2026-04-20 19:38 | 51.66041 | 0.34356 | 9211 ft | 283 kts | 266° |
| 2026-04-20 19:38 | 51.65806 | 0.31214 | 8848 ft | 282 kts | 266° |
| 2026-04-20 19:38 | 51.65572 | 0.28089 | 8501 ft | 280 kts | 266° |
| 2026-04-20 19:39 | 51.65320 | 0.24987 | 8290 ft | 279 kts | 264° |
| 2026-04-20 19:39 | 51.65046 | 0.21894 | 8293 ft | 280 kts | 264° |
| 2026-04-20 19:39 | 51.64768 | 0.18750 | 8296 ft | 280 kts | 264° |
| 2026-04-20 19:39 | 51.64491 | 0.15686 | 8297 ft | 280 kts | 264° |
| 2026-04-20 19:40 | 51.64139 | 0.12550 | 8301 ft | 281 kts | 262° |
| 2026-04-20 19:40 | 51.63755 | 0.09475 | 8297 ft | 281 kts | 261° |
| 2026-04-20 19:40 | 51.63370 | 0.06379 | 8297 ft | 281 kts | 261° |
| 2026-04-20 19:40 | 51.62982 | 0.03242 | 8301 ft | 281 kts | 261° |
| 2026-04-20 19:41 | 51.62604 | 0.00170 | 8297 ft | 281 kts | 261° |
| 2026-04-20 19:41 | 51.62223 | -0.02922 | 8333 ft | 281 kts | 261° |
| 2026-04-20 19:41 | 51.61840 | -0.06042 | 8335 ft | 281 kts | 261° |
| 2026-04-20 19:41 | 51.61459 | -0.09127 | 8347 ft | 281 kts | 261° |
| 2026-04-20 19:42 | 51.61075 | -0.12206 | 8342 ft | 281 kts | 261° |
| 2026-04-20 19:42 | 51.60687 | -0.15340 | 8345 ft | 281 kts | 261° |
| 2026-04-20 19:42 | 51.60312 | -0.18375 | 8347 ft | 281 kts | 261° |
| 2026-04-20 19:42 | 51.59937 | -0.21457 | 8348 ft | 281 kts | 261° |
| 2026-04-20 19:43 | 51.59559 | -0.24538 | 8348 ft | 281 kts | 261° |
| 2026-04-20 19:43 | 51.59180 | -0.27618 | 8271 ft | 281 kts | 261° |
| 2026-04-20 19:43 | 51.58798 | -0.30699 | 8272 ft | 281 kts | 261° |
| 2026-04-20 19:43 | 51.58545 | -0.32743 | 8272 ft | 281 kts | 261° |
| 2026-04-20 19:44 | 51.58030 | -0.36908 | 8276 ft | 281 kts | 261° |
| 2026-04-20 19:44 | 51.57651 | -0.39979 | 8030 ft | 279 kts | 261° |
| 2026-04-20 19:44 | 51.57278 | -0.43013 | 7690 ft | 278 kts | 261° |
| 2026-04-20 19:44 | 51.56894 | -0.46078 | 7349 ft | 277 kts | 261° |
| 2026-04-20 19:45 | 51.56514 | -0.49107 | 7266 ft | 277 kts | 261° |
| 2026-04-20 19:45 | 51.56126 | -0.52151 | 7270 ft | 273 kts | 261° |
| 2026-04-20 19:45 | 51.55758 | -0.55042 | 7276 ft | 258 kts | 261° |
| 2026-04-20 19:45 | 51.55400 | -0.57806 | 7272 ft | 248 kts | 261° |
| 2026-04-20 19:46 | 51.55052 | -0.60497 | 7275 ft | 246 kts | 261° |
| 2026-04-20 19:46 | 51.54847 | -0.63210 | 7277 ft | 243 kts | 273° |
| 2026-04-20 19:46 | 51.54896 | -0.65920 | 7279 ft | 242 kts | 276° |
| 2026-04-20 19:46 | 51.54973 | -0.68623 | 7277 ft | 242 kts | 276° |
| 2026-04-20 19:47 | 51.55055 | -0.71325 | 7278 ft | 242 kts | 276° |
| 2026-04-20 19:47 | 51.55139 | -0.74031 | 7259 ft | 242 kts | 276° |
| 2026-04-20 19:47 | 51.55221 | -0.76719 | 7000 ft | 241 kts | 276° |
| 2026-04-20 19:47 | 51.55300 | -0.79399 | 6664 ft | 239 kts | 276° |
| 2026-04-20 19:48 | 51.55378 | -0.82069 | 6254 ft | 239 kts | 276° |
| 2026-04-20 19:48 | 51.55461 | -0.84742 | 5884 ft | 239 kts | 276° |
| 2026-04-20 19:48 | 51.55546 | -0.87409 | 5557 ft | 239 kts | 276° |
| 2026-04-20 19:48 | 51.55631 | -0.90074 | 5304 ft | 236 kts | 276° |
| 2026-04-20 19:49 | 51.55712 | -0.92643 | 5176 ft | 225 kts | 276° |
| 2026-04-20 19:49 | 51.55786 | -0.95094 | 5038 ft | 214 kts | 276° |
| 2026-04-20 19:49 | 51.55855 | -0.97429 | 4891 ft | 204 kts | 275° |
| 2026-04-20 19:49 | 51.55932 | -0.99678 | 4659 ft | 200 kts | 276° |
| 2026-04-20 19:50 | 51.55811 | -1.01891 | 4325 ft | 202 kts | 248° |
| 2026-04-20 19:50 | 51.54928 | -1.03570 | 4037 ft | 197 kts | 205° |
| 2026-04-20 19:50 | 51.53616 | -1.04087 | 4030 ft | 196 kts | 180° |
| 2026-04-20 19:50 | 51.52251 | -1.04158 | 4010 ft | 196 kts | 176° |
| 2026-04-20 19:51 | 51.50971 | -1.03672 | 4008 ft | 187 kts | 141° |
| 2026-04-20 19:51 | 51.50019 | -1.02287 | 4012 ft | 184 kts | 128° |
| 2026-04-20 19:51 | 51.49177 | -1.00751 | 4011 ft | 183 kts | 126° |
| 2026-04-20 19:51 | 51.48350 | -0.99198 | 4011 ft | 183 kts | 126° |
| 2026-04-20 19:52 | 51.47668 | -0.97512 | 4009 ft | 179 kts | 107° |
| 2026-04-20 19:52 | 51.47459 | -0.95575 | 4017 ft | 175 kts | 86° |
| 2026-04-20 19:52 | 51.47476 | -0.93616 | 4014 ft | 176 kts | 86° |
| 2026-04-20 19:52 | 51.47492 | -0.91680 | 4017 ft | 166 kts | 86° |
| 2026-04-20 19:53 | 51.47505 | -0.89898 | 4019 ft | 157 kts | 86° |
| 2026-04-20 19:53 | 51.47518 | -0.88162 | 4012 ft | 155 kts | 85° |
| 2026-04-20 19:53 | 51.47532 | -0.86434 | 4013 ft | 155 kts | 85° |
| 2026-04-20 19:53 | 51.47544 | -0.84709 | 4013 ft | 155 kts | 85° |
| 2026-04-20 19:54 | 51.47557 | -0.82983 | 4014 ft | 155 kts | 86° |
| 2026-04-20 19:54 | 51.47569 | -0.81260 | 4011 ft | 155 kts | 86° |
| 2026-04-20 19:54 | 51.47580 | -0.79535 | 3919 ft | 155 kts | 85° |
| 2026-04-20 19:54 | 51.47592 | -0.77814 | 3738 ft | 154 kts | 85° |
| 2026-04-20 19:55 | 51.47599 | -0.76685 | 3612 ft | 153 kts | 86° |
| 2026-04-20 19:55 | 51.47610 | -0.74990 | 3411 ft | 151 kts | 86° |
| 2026-04-20 19:55 | 51.47621 | -0.73287 | 3203 ft | 151 kts | 86° |
| 2026-04-20 19:55 | 51.47631 | -0.71604 | 2996 ft | 150 kts | 86° |
| 2026-04-20 19:56 | 51.47641 | -0.69941 | 2791 ft | 149 kts | 86° |
| 2026-04-20 19:56 | 51.47651 | -0.68282 | 2584 ft | 149 kts | 86° |
| 2026-04-20 19:56 | 51.47660 | -0.66622 | 2400 ft | 149 kts | 86° |
| 2026-04-20 19:56 | 51.47669 | -0.64972 | 2199 ft | 147 kts | 86° |
| 2026-04-20 19:57 | 51.47678 | -0.63333 | 1998 ft | 147 kts | 86° |
| 2026-04-20 19:57 | 51.47687 | -0.61695 | 1791 ft | 147 kts | 86° |
| 2026-04-20 19:57 | 51.47695 | -0.60057 | 1585 ft | 147 kts | 86° |
| 2026-04-20 19:57 | 51.47703 | -0.58415 | 1395 ft | 146 kts | 86° |
| 2026-04-20 19:58 | 51.47711 | -0.56793 | 1184 ft | 140 kts | 86° |
| 2026-04-20 19:58 | 51.47717 | -0.55318 | 956 ft | 127 kts | 85° |
| 2026-04-20 19:58 | 51.47720 | -0.53926 | 762 ft | 124 kts | 87° |
| 2026-04-20 19:58 | 51.47727 | -0.52557 | 627 ft | 123 kts | 87° |
| 2026-04-20 19:59 | 51.47732 | -0.51168 | 500 ft | 123 kts | 88° |
| 2026-04-20 19:59 | 51.47743 | -0.49799 | 286 ft | 122 kts | 87° |
| 2026-04-20 19:59 | 51.47747 | -0.48442 | 149 ft | 121 kts | 86° |
| 2026-04-20 19:59 | 51.47740 | -0.47108 | 89 ft | 106 kts | 84° |
| 2026-04-20 20:00 | 51.47765 | -0.46242 | 87 ft | 38 kts | 90° |
| 2026-04-20 20:00 | 51.47760 | -0.45780 | 84 ft | 44 kts | 91° |
| 2026-04-20 20:00 | 51.47754 | -0.45523 | 89 ft | 13 kts | 111° |
| 2026-04-20 20:00 | 51.47669 | -0.45467 | 86 ft | 15 kts | 181° |
| 2026-04-20 20:01 | 51.47598 | -0.45497 | 88 ft | 11 kts | 235° |
| 2026-04-20 20:01 | 51.47596 | -0.45635 | 90 ft | 14 kts | 270° |
| 2026-04-20 20:01 | 51.47595 | -0.45802 | 88 ft | 16 kts | 270° |
| 2026-04-20 20:01 | 51.47594 | -0.45998 | 87 ft | 19 kts | 269° |
| 2026-04-20 20:02 | 51.47594 | -0.46223 | 86 ft | 21 kts | 270° |
| 2026-04-20 20:02 | 51.47593 | -0.46477 | 86 ft | 24 kts | 269° |
| 2026-04-20 20:02 | 51.47592 | -0.46739 | 86 ft | 20 kts | 270° |
| 2026-04-20 20:02 | 51.47583 | -0.46950 | 89 ft | 18 kts | 269° |
| 2026-04-20 20:03 | 51.47582 | -0.47150 | 88 ft | 17 kts | 269° |
| 2026-04-20 20:03 | 51.47582 | -0.47340 | 87 ft | 17 kts | 270° |
| 2026-04-20 20:03 | 51.47581 | -0.47520 | 86 ft | 16 kts | 269° |
| 2026-04-20 20:03 | 51.47581 | -0.47691 | 86 ft | 15 kts | 270° |
| 2026-04-20 20:04 | 51.47580 | -0.47858 | 86 ft | 15 kts | 270° |
| 2026-04-20 20:04 | 51.47579 | -0.48026 | 86 ft | 15 kts | 269° |
| 2026-04-20 20:04 | 51.47579 | -0.48194 | 90 ft | 15 kts | 269° |
| 2026-04-20 20:04 | 51.47578 | -0.48370 | 88 ft | 15 kts | 269° |
| 2026-04-20 20:05 | 51.47564 | -0.48461 | 89 ft | 8 kts | 225° |
| 2026-04-20 20:05 | 51.47518 | -0.48477 | 86 ft | 6 kts | 177° |
| 2026-04-20 20:05 | 51.47470 | -0.48475 | 86 ft | 8 kts | 180° |
| 2026-04-20 20:05 | 51.47410 | -0.48475 | 86 ft | 10 kts | 180° |
| 2026-04-20 20:06 | 51.47337 | -0.48474 | 86 ft | 11 kts | 180° |
| 2026-04-20 20:06 | 51.47258 | -0.48473 | 86 ft | 11 kts | 180° |
| 2026-04-20 20:06 | 51.47236 | -0.48483 | 86 ft | 3 kts | 223° |
| 2026-04-20 20:06 | 51.47233 | -0.48520 | 87 ft | 4 kts | 270° |
| 2026-04-20 20:07 | 51.47233 | -0.48564 | 88 ft | 4 kts | 270° |
| 2026-04-20 20:07 | 51.47233 | -0.48587 | 86 ft | 1 kts | 269° |